createdAt,value
2022-07-29T00:00:12.275Z,39.40
2022-07-29T00:02:39.388Z,37.60
2022-07-29T00:05:06.874Z,38.00
2022-07-29T00:07:33.879Z,38.20
2022-07-29T00:10:00.930Z,38.90
2022-07-29T00:12:28.041Z,38.30
2022-07-29T00:14:57.756Z,39.60
2022-07-29T00:17:25.342Z,41.70
2022-07-29T00:19:52.831Z,40.60
2022-07-29T00:22:21.633Z,40.50
2022-07-29T00:24:50.032Z,41.90
2022-07-29T00:27:17.314Z,44.00
2022-07-29T00:29:44.279Z,43.00
2022-07-29T00:32:11.247Z,42.80
2022-07-29T00:34:58.388Z,44.00
2022-07-29T00:37:26.013Z,43.40
2022-07-29T00:39:52.940Z,42.50
2022-07-29T00:42:19.880Z,43.00
2022-07-29T00:44:46.910Z,43.90
2022-07-29T00:47:14.125Z,44.40
2022-07-29T00:49:42.575Z,44.40
2022-07-29T00:52:11.309Z,43.90
2022-07-29T00:54:44.210Z,44.30
2022-07-29T00:57:12.801Z,44.20
2022-07-29T00:59:40.521Z,44.50
2022-07-29T01:02:07.708Z,45.90
2022-07-29T01:04:35.146Z,47.10
2022-07-29T01:07:03.697Z,46.30
2022-07-29T01:09:42.949Z,46.30
2022-07-29T01:12:20.110Z,45.80
2022-07-29T01:14:48.640Z,46.10
2022-07-29T01:17:24.536Z,46.90
2022-07-29T01:20:07.302Z,46.60
2022-07-29T01:22:52.243Z,46.30
2022-07-29T01:25:44.391Z,47.30
2022-07-29T01:28:29.853Z,47.30
2022-07-29T01:30:57.573Z,48.60
2022-07-29T01:33:44.536Z,48.50
2022-07-29T01:36:15.773Z,49.40
2022-07-29T01:38:45.172Z,49.90
2022-07-29T01:41:17.379Z,51.00
2022-07-29T01:43:57.157Z,51.90
2022-07-29T01:46:36.736Z,53.10
2022-07-29T01:49:11.191Z,53.20
2022-07-29T01:52:12.959Z,52.90
2022-07-29T01:55:04.174Z,53.40
2022-07-29T01:57:34.880Z,54.00
2022-07-29T02:00:02.485Z,55.00
2022-07-29T02:02:42.305Z,56.60
2022-07-29T02:05:12.448Z,59.20
2022-07-29T02:07:41.779Z,59.30
2022-07-29T02:10:11.543Z,59.80
2022-07-29T02:12:40.611Z,59.40
2022-07-29T02:15:08.465Z,60.80
2022-07-29T02:17:54.512Z,64.00
2022-07-29T02:20:24.310Z,63.30
2022-07-29T02:22:53.102Z,67.80
2022-07-29T02:25:21.981Z,68.90
2022-07-29T02:27:51.681Z,69.50
2022-07-29T02:30:21.503Z,70.00
2022-07-29T02:32:50.642Z,70.60
2022-07-29T02:35:18.999Z,70.10
2022-07-29T02:38:07.576Z,71.00
2022-07-29T02:40:37.543Z,72.60
2022-07-29T02:43:06.972Z,71.90
2022-07-29T02:45:35.499Z,75.40
2022-07-29T02:48:10.077Z,76.90
2022-07-29T02:50:42.038Z,78.80
2022-07-29T02:53:18.827Z,78.90
2022-07-29T02:55:52.964Z,77.60
2022-07-29T02:58:27.396Z,77.50
2022-07-29T03:00:56.350Z,77.30
2022-07-29T03:03:26.357Z,77.90
2022-07-29T03:05:57.712Z,79.70
2022-07-29T03:08:27.456Z,80.00
2022-07-29T03:10:55.946Z,80.30
2022-07-29T03:13:23.605Z,81.00
2022-07-29T03:15:53.588Z,79.40
2022-07-29T03:18:20.692Z,79.50
2022-07-29T03:20:47.758Z,79.80
2022-07-29T03:23:24.821Z,78.90
2022-07-29T03:25:52.144Z,80.60
2022-07-29T03:28:19.852Z,81.80
2022-07-29T03:30:47.888Z,81.20
2022-07-29T03:33:14.948Z,83.70
2022-07-29T03:35:44.233Z,83.90
2022-07-29T03:38:11.204Z,84.80
2022-07-29T03:40:45.957Z,84.30
2022-07-29T03:43:16.065Z,84.70
2022-07-29T03:45:45.669Z,85.50
2022-07-29T03:48:17.199Z,85.40
2022-07-29T03:50:44.388Z,86.10
2022-07-29T03:53:12.123Z,86.50
2022-07-29T03:55:44.439Z,87.60
2022-07-29T03:58:13.918Z,86.90
2022-07-29T04:00:41.688Z,86.50
2022-07-29T04:03:10.586Z,86.70
2022-07-29T04:05:38.877Z,86.80
2022-07-29T04:08:06.531Z,87.10
2022-07-29T04:10:34.046Z,87.40
2022-07-29T04:13:02.897Z,88.30
2022-07-29T04:15:30.895Z,88.80
2022-07-29T04:17:59.158Z,88.70
2022-07-29T04:20:26.755Z,89.60
2022-07-29T04:22:53.784Z,88.40
2022-07-29T04:25:20.884Z,88.20
2022-07-29T04:28:02.829Z,88.00
2022-07-29T04:30:30.617Z,87.90
2022-07-29T04:32:57.723Z,88.00
2022-07-29T04:35:24.796Z,87.70
2022-07-29T04:37:51.829Z,87.60
2022-07-29T04:40:18.894Z,87.30
2022-07-29T04:42:47.248Z,88.30
2022-07-29T04:45:16.117Z,89.40
2022-07-29T04:47:43.264Z,89.90
2022-07-29T04:50:11.310Z,90.40
2022-07-29T04:52:38.561Z,90.60
2022-07-29T04:55:06.460Z,89.20
2022-07-29T04:57:33.802Z,90.00
2022-07-29T05:00:00.886Z,88.40
2022-07-29T05:02:27.905Z,89.70
2022-07-29T05:04:54.945Z,89.20
2022-07-29T05:07:21.988Z,88.30
2022-07-29T05:09:49.323Z,88.10
2022-07-29T05:12:16.472Z,88.70
2022-07-29T05:14:43.439Z,88.90
2022-07-29T05:17:10.551Z,88.00
2022-07-29T05:19:39.592Z,88.30
2022-07-29T05:22:06.831Z,88.10
2022-07-29T05:24:33.767Z,87.00
2022-07-29T05:27:00.721Z,87.80
2022-07-29T05:29:43.329Z,86.60
2022-07-29T05:32:15.530Z,87.80
2022-07-29T05:34:50.928Z,87.20
2022-07-29T05:37:20.483Z,86.90
2022-07-29T05:39:50.663Z,88.20
2022-07-29T05:42:25.487Z,88.20
2022-07-29T05:44:52.816Z,87.20
2022-07-29T05:47:20.100Z,85.90
2022-07-29T05:49:47.166Z,86.70
2022-07-29T05:52:14.396Z,86.60
2022-07-29T05:54:41.541Z,86.20
2022-07-29T05:57:08.819Z,84.90
2022-07-29T05:59:39.225Z,85.00
2022-07-29T06:02:06.533Z,85.00
2022-07-29T06:04:34.567Z,84.30
2022-07-29T06:07:02.738Z,82.80
2022-07-29T06:09:30.202Z,83.40
2022-07-29T06:11:58.272Z,83.50
2022-07-29T06:14:25.735Z,83.10
2022-07-29T06:16:52.833Z,83.00
2022-07-29T06:19:20.242Z,83.70
2022-07-29T06:21:48.161Z,83.90
2022-07-29T06:24:16.821Z,83.10
2022-07-29T06:26:44.462Z,83.10
2022-07-29T06:29:11.832Z,82.50
2022-07-29T06:31:41.027Z,81.60
2022-07-29T06:34:08.096Z,81.70
2022-07-29T06:36:41.134Z,81.70
2022-07-29T06:39:09.182Z,81.20
2022-07-29T06:41:36.613Z,80.30
2022-07-29T06:44:10.250Z,80.00
2022-07-29T06:46:37.599Z,80.70
2022-07-29T06:49:05.479Z,78.20
2022-07-29T06:51:33.816Z,79.10
2022-07-29T06:54:03.307Z,78.40
2022-07-29T06:56:32.560Z,76.90
2022-07-29T06:59:07.540Z,76.80
2022-07-29T07:01:34.642Z,76.40
2022-07-29T07:04:01.653Z,74.90
2022-07-29T07:06:28.681Z,74.40
2022-07-29T07:08:55.784Z,76.30
2022-07-29T07:11:22.928Z,76.00
2022-07-29T07:13:50.001Z,73.50
2022-07-29T07:16:17.186Z,70.80
2022-07-29T07:18:46.134Z,71.30
2022-07-29T07:21:14.148Z,68.50
2022-07-29T07:23:46.988Z,69.70
2022-07-29T07:26:15.307Z,67.10
2022-07-29T07:28:42.332Z,66.90
2022-07-29T07:31:10.499Z,67.80
2022-07-29T07:33:37.571Z,67.20
2022-07-29T07:36:04.699Z,65.30
2022-07-29T07:38:31.683Z,63.20
2022-07-29T07:40:58.724Z,63.40
2022-07-29T07:43:25.786Z,59.30
2022-07-29T07:45:52.949Z,57.90
2022-07-29T07:48:20.085Z,54.70
2022-07-29T07:50:47.168Z,54.30
2022-07-29T07:53:14.488Z,57.80
2022-07-29T07:58:31.064Z,55.40
2022-07-29T08:00:58.302Z,53.60
2022-07-29T08:03:25.291Z,52.90
2022-07-29T08:05:52.865Z,51.70
2022-07-29T08:08:20.263Z,50.60
2022-07-29T08:10:53.389Z,50.40
2022-07-29T08:13:22.209Z,48.20
2022-07-29T08:15:58.566Z,47.30
2022-07-29T08:18:27.533Z,45.20
2022-07-29T08:20:54.979Z,45.60
2022-07-29T08:23:22.522Z,42.30
2022-07-29T08:25:50.648Z,39.80
2022-07-29T08:28:18.391Z,40.20
2022-07-29T08:30:45.397Z,42.20
2022-07-29T08:33:12.512Z,39.00
2022-07-29T08:35:40.937Z,38.50
2022-07-29T08:38:07.884Z,36.90
2022-07-29T08:40:34.971Z,37.00
2022-07-29T08:43:11.195Z,36.00
2022-07-29T08:45:47.974Z,33.20
2022-07-29T08:48:24.298Z,32.80
2022-07-29T08:50:59.266Z,32.60
2022-07-29T08:53:28.188Z,28.30
2022-07-29T08:55:56.470Z,27.00
2022-07-29T08:58:24.602Z,27.30
2022-07-29T09:00:58.182Z,26.50
2022-07-29T09:03:28.399Z,26.50
2022-07-29T09:05:55.949Z,24.00
2022-07-29T09:08:24.088Z,23.70
2022-07-29T09:10:52.181Z,20.60
2022-07-29T09:13:19.179Z,18.50
2022-07-29T09:15:46.667Z,19.60
2022-07-29T09:18:19.471Z,17.40
2022-07-29T09:21:16.704Z,17.70
2022-07-29T09:24:03.659Z,17.00
2022-07-29T09:26:32.475Z,17.00
2022-07-29T09:29:00.171Z,16.40
2022-07-29T09:31:38.036Z,16.50
2022-07-29T09:34:06.155Z,15.90
2022-07-29T09:36:49.683Z,15.30
2022-07-29T09:39:27.971Z,15.50
2022-07-29T09:41:56.856Z,13.70
2022-07-29T09:44:25.251Z,13.20
2022-07-29T09:47:07.762Z,11.80
2022-07-29T09:49:36.263Z,13.40
2022-07-29T09:52:09.141Z,13.90
2022-07-29T09:54:40.037Z,12.60
2022-07-29T09:57:13.429Z,11.80
2022-07-29T09:59:50.142Z,13.70
2022-07-29T10:02:23.465Z,13.60
2022-07-29T10:04:51.759Z,13.10
2022-07-29T10:07:18.751Z,11.20
2022-07-29T10:10:06.193Z,9.30
2022-07-29T10:12:33.363Z,7.60
2022-07-29T10:15:03.660Z,8.10
2022-07-29T10:17:30.620Z,8.50
2022-07-29T10:19:57.977Z,6.40
2022-07-29T10:22:51.446Z,6.50
2022-07-29T10:25:12.302Z,4.80
2022-07-29T10:27:40.702Z,4.20
2022-07-29T10:30:08.950Z,4.90
2022-07-29T10:33:03.780Z,4.60
2022-07-29T10:35:55.608Z,5.00
2022-07-29T10:38:28.768Z,4.40
2022-07-29T10:41:32.411Z,3.00
2022-07-29T10:44:23.248Z,4.60
2022-07-29T10:46:52.773Z,1.80
2022-07-29T10:49:31.159Z,1.80
2022-07-29T10:51:59.829Z,1.70
2022-07-29T10:54:48.858Z,3.50
2022-07-29T10:57:25.608Z,1.80
2022-07-29T11:00:16.999Z,1.00
2022-07-29T11:02:50.003Z,1.00
2022-07-29T11:05:20.234Z,1.00
2022-07-29T11:08:19.935Z,1.00
2022-07-29T11:10:54.641Z,1.00
2022-07-29T11:13:43.390Z,1.00
2022-07-29T11:16:10.858Z,1.00
2022-07-29T11:19:13.932Z,1.00
2022-07-29T11:21:55.257Z,1.00
2022-07-29T11:24:32.134Z,1.00
2022-07-29T11:27:19.795Z,1.00
2022-07-29T11:29:52.440Z,1.00
2022-07-29T11:32:22.665Z,1.00
2022-07-29T11:35:17.643Z,1.00
2022-07-29T11:37:55.231Z,1.00
2022-07-29T11:40:25.152Z,1.00
2022-07-29T11:42:52.870Z,1.00
2022-07-29T11:48:28.774Z,1.00
2022-07-29T11:51:00.603Z,1.00
2022-07-29T11:53:28.971Z,1.00
2022-07-29T11:56:00.696Z,1.00
2022-07-29T11:58:29.482Z,1.00
2022-07-29T12:00:57.894Z,1.00
2022-07-29T12:03:33.613Z,1.00
2022-07-29T12:06:17.953Z,1.00
2022-07-29T12:08:45.780Z,1.00
2022-07-29T12:11:22.782Z,1.00
2022-07-29T12:13:52.478Z,1.00
2022-07-29T12:16:25.676Z,1.00
2022-07-29T12:19:03.722Z,1.00
2022-07-29T12:21:59.465Z,1.00
2022-07-29T12:24:27.454Z,1.00
2022-07-29T12:26:57.521Z,1.00
2022-07-29T12:29:34.503Z,1.00
2022-07-29T12:32:05.373Z,1.00
2022-07-29T12:34:33.386Z,1.00
2022-07-29T12:37:00.695Z,1.00
2022-07-29T12:39:29.171Z,1.00
2022-07-29T12:42:04.058Z,1.00
2022-07-29T12:44:48.438Z,1.00
2022-07-29T12:47:16.336Z,1.00
2022-07-29T12:49:43.398Z,1.00
2022-07-29T12:52:26.357Z,1.00
2022-07-29T12:54:53.342Z,1.00
2022-07-29T12:57:20.608Z,1.00
2022-07-29T13:00:04.117Z,1.00
2022-07-29T13:02:31.475Z,1.00
2022-07-29T13:05:00.707Z,1.00
2022-07-29T13:07:53.966Z,1.00
2022-07-29T13:10:24.576Z,1.00
2022-07-29T13:13:12.613Z,1.00
2022-07-29T13:15:41.605Z,1.00
2022-07-29T13:18:33.137Z,1.00
2022-07-29T13:21:18.983Z,1.00
2022-07-29T13:23:46.265Z,1.00
2022-07-29T13:26:14.380Z,1.00
2022-07-29T13:28:44.058Z,1.00
2022-07-29T13:31:12.017Z,1.00
2022-07-29T13:33:39.061Z,1.00
2022-07-29T13:36:06.387Z,1.00
2022-07-29T13:38:33.451Z,1.00
2022-07-29T13:41:02.833Z,1.00
2022-07-29T13:43:30.562Z,1.00
2022-07-29T13:45:57.864Z,1.00
2022-07-29T13:48:24.912Z,1.00
2022-07-29T13:50:51.964Z,1.00
2022-07-29T13:53:19.944Z,1.00
2022-07-29T13:55:54.273Z,1.00
2022-07-29T13:58:21.433Z,1.00
2022-07-29T14:00:49.611Z,1.00
2022-07-29T14:03:16.947Z,1.00
2022-07-29T14:05:43.981Z,1.00
2022-07-29T14:08:11.951Z,1.00
2022-07-29T14:10:39.139Z,1.00
2022-07-29T14:13:06.129Z,1.00
2022-07-29T14:15:53.895Z,1.00
2022-07-29T14:18:20.854Z,1.00
2022-07-29T14:20:47.911Z,1.00
2022-07-29T14:23:16.277Z,1.00
2022-07-29T14:25:43.799Z,1.00
2022-07-29T14:28:11.663Z,1.00
2022-07-29T14:30:42.096Z,1.00
2022-07-29T14:33:09.350Z,1.00
2022-07-29T14:35:38.372Z,1.00
2022-07-29T14:38:05.638Z,1.00
2022-07-29T14:40:32.841Z,1.00
2022-07-29T14:42:59.887Z,1.00
2022-07-29T14:45:26.931Z,1.00
2022-07-29T14:47:55.869Z,1.00
2022-07-29T14:50:31.516Z,1.00
2022-07-29T14:53:02.690Z,1.00
2022-07-29T14:55:29.948Z,1.00
2022-07-29T14:58:07.716Z,1.00
2022-07-29T15:00:38.141Z,1.00
2022-07-29T15:03:05.727Z,1.00
2022-07-29T15:05:34.267Z,1.00
2022-07-29T15:08:01.247Z,1.00
2022-07-29T15:10:28.408Z,1.00
2022-07-29T15:12:57.210Z,1.00
2022-07-29T15:15:25.196Z,1.00
2022-07-29T15:17:52.352Z,1.00
2022-07-29T15:20:20.981Z,1.00
2022-07-29T15:22:48.096Z,1.00
2022-07-29T15:25:15.445Z,1.00
2022-07-29T15:27:42.396Z,1.00
2022-07-29T15:30:32.478Z,1.00
2022-07-29T15:33:03.016Z,1.00
2022-07-29T15:35:30.033Z,1.00
2022-07-29T15:37:57.190Z,1.00
2022-07-29T15:40:24.270Z,1.00
2022-07-29T15:42:51.476Z,1.00
2022-07-29T15:45:18.439Z,1.00
2022-07-29T15:47:45.600Z,1.00
2022-07-29T15:50:16.752Z,1.00
2022-07-29T15:52:43.794Z,1.00
2022-07-29T15:55:11.615Z,1.00
2022-07-29T15:57:38.639Z,1.00
2022-07-29T16:00:06.190Z,1.00
2022-07-29T16:02:36.666Z,1.00
2022-07-29T16:05:04.249Z,1.00
2022-07-29T16:07:36.501Z,1.00
2022-07-29T16:10:04.547Z,1.00
2022-07-29T16:12:31.640Z,1.00
2022-07-29T16:14:58.683Z,1.00
2022-07-29T16:17:25.795Z,1.00
2022-07-29T16:19:53.414Z,1.00
2022-07-29T16:22:20.429Z,1.00
2022-07-29T16:24:47.476Z,1.00
2022-07-29T16:27:14.490Z,1.00
2022-07-29T16:29:41.628Z,1.00
2022-07-29T16:32:08.804Z,1.00
2022-07-29T16:34:35.911Z,1.00
2022-07-29T16:37:04.824Z,1.00
2022-07-29T16:39:32.169Z,1.00
2022-07-29T16:42:01.523Z,1.00
2022-07-29T16:44:30.180Z,1.00
2022-07-29T16:47:01.119Z,1.00
2022-07-29T16:49:29.166Z,1.00
2022-07-29T16:51:56.244Z,1.00
2022-07-29T16:54:23.367Z,1.00
2022-07-29T16:56:50.313Z,1.00
2022-07-29T16:59:17.378Z,1.00
2022-07-29T17:01:44.450Z,1.00
2022-07-29T17:04:12.364Z,1.00
2022-07-29T17:06:40.651Z,1.00
2022-07-29T17:09:09.904Z,1.00
2022-07-29T17:11:53.961Z,1.00
2022-07-29T17:14:26.989Z,1.00
2022-07-29T17:17:01.420Z,1.00
2022-07-29T17:19:35.221Z,1.00
2022-07-29T17:22:11.286Z,1.00
2022-07-29T17:24:40.930Z,1.00
2022-07-29T17:27:09.427Z,1.00
2022-07-29T17:29:36.521Z,1.00
2022-07-29T17:32:03.793Z,1.00
2022-07-29T17:34:31.064Z,1.00
2022-07-29T17:36:59.457Z,1.00
2022-07-29T17:39:26.694Z,1.00
2022-07-29T17:41:53.625Z,1.00
2022-07-29T17:44:22.260Z,1.00
2022-07-29T17:46:49.229Z,1.00
2022-07-29T17:49:16.483Z,1.00
2022-07-29T17:51:43.524Z,1.00
2022-07-29T17:54:10.518Z,1.00
2022-07-29T17:56:37.420Z,1.00
2022-07-29T17:59:06.707Z,1.00
2022-07-29T18:01:34.567Z,1.00
2022-07-29T18:04:02.835Z,1.00
2022-07-29T18:06:30.178Z,1.00
2022-07-29T18:08:57.258Z,1.00
2022-07-29T18:11:24.573Z,1.00
2022-07-29T18:13:52.421Z,1.00
2022-07-29T18:16:19.887Z,1.00
2022-07-29T18:18:47.158Z,1.00
2022-07-29T18:21:14.629Z,1.00
2022-07-29T18:23:42.378Z,1.00
2022-07-29T18:26:10.491Z,1.00
2022-07-29T18:28:37.832Z,1.00
2022-07-29T18:31:07.019Z,1.00
2022-07-29T18:33:34.181Z,1.00
2022-07-29T18:36:11.037Z,1.00
2022-07-29T18:38:42.105Z,1.00
2022-07-29T18:41:09.417Z,1.00
2022-07-29T18:43:36.824Z,1.00
2022-07-29T18:46:05.834Z,1.00
2022-07-29T18:48:34.235Z,1.00
2022-07-29T18:51:01.552Z,1.00
2022-07-29T18:53:28.669Z,1.00
2022-07-29T18:56:00.294Z,1.00
2022-07-29T18:58:27.854Z,1.00
2022-07-29T19:00:54.855Z,1.00
2022-07-29T19:03:21.975Z,1.00
2022-07-29T19:05:49.453Z,1.00
2022-07-29T19:08:16.376Z,1.00
2022-07-29T19:10:43.502Z,1.00
2022-07-29T19:13:10.647Z,1.00
2022-07-29T19:15:40.795Z,1.00
2022-07-29T19:18:07.808Z,1.00
2022-07-29T19:20:34.923Z,1.00
2022-07-29T19:23:04.115Z,1.00
2022-07-29T19:25:31.467Z,1.00
2022-07-29T19:28:02.653Z,1.00
2022-07-29T19:30:29.918Z,1.10
2022-07-29T19:32:57.055Z,1.30
2022-07-29T19:35:24.152Z,1.30
2022-07-29T19:37:56.349Z,1.30
2022-07-29T19:40:25.194Z,1.50
2022-07-29T19:42:54.638Z,2.30
2022-07-29T19:45:24.487Z,2.00
2022-07-29T19:47:52.354Z,2.10
2022-07-29T19:50:19.665Z,2.50
2022-07-29T19:52:47.569Z,2.70
2022-07-29T19:55:19.387Z,2.80
2022-07-29T19:57:46.719Z,2.80
2022-07-29T20:00:20.970Z,3.30
2022-07-29T20:02:49.503Z,3.50
2022-07-29T20:05:16.668Z,3.80
2022-07-29T20:07:44.069Z,4.10
2022-07-29T20:10:11.353Z,4.60
2022-07-29T20:12:39.711Z,5.00
2022-07-29T20:15:07.500Z,5.50
2022-07-29T20:17:39.751Z,6.30
2022-07-29T20:20:09.591Z,7.10
2022-07-29T20:22:37.464Z,8.00
2022-07-29T20:25:06.146Z,8.90
2022-07-29T20:27:36.085Z,10.00
2022-07-29T20:30:04.141Z,11.20
2022-07-29T20:32:31.803Z,11.80
2022-07-29T20:35:01.206Z,13.50
2022-07-29T20:37:28.370Z,14.60
2022-07-29T20:39:55.462Z,16.30
2022-07-29T20:42:22.469Z,17.60
2022-07-29T20:44:51.141Z,19.60
2022-07-29T20:47:18.325Z,20.40
2022-07-29T20:49:45.431Z,21.60
2022-07-29T20:52:12.801Z,22.00
2022-07-29T20:54:41.235Z,23.30
2022-07-29T20:57:09.455Z,25.20
2022-07-29T20:59:36.464Z,28.30
2022-07-29T21:02:06.932Z,30.20
2022-07-29T21:04:37.221Z,31.30
2022-07-29T21:07:04.875Z,33.10
2022-07-29T21:09:31.939Z,35.00
2022-07-29T21:12:00.791Z,35.40
2022-07-29T21:14:47.870Z,37.10
2022-07-29T21:17:16.290Z,37.90
2022-07-29T21:19:43.547Z,39.90
2022-07-29T21:22:13.536Z,40.00
2022-07-29T21:24:40.710Z,41.40
2022-07-29T21:27:27.014Z,42.30
2022-07-29T21:29:54.444Z,44.70
2022-07-29T21:32:27.505Z,46.10
2022-07-29T21:35:00.143Z,48.90
2022-07-29T21:37:28.145Z,50.30
2022-07-29T21:39:55.273Z,51.80
2022-07-29T21:42:22.593Z,53.10
2022-07-29T21:44:49.755Z,54.70
2022-07-29T21:47:17.596Z,56.90
2022-07-29T21:49:46.391Z,58.40
2022-07-29T21:52:14.160Z,58.20
2022-07-29T21:54:42.260Z,62.80
2022-07-29T21:57:12.093Z,65.10
2022-07-29T21:59:40.174Z,67.90
2022-07-29T22:02:08.121Z,70.40
2022-07-29T22:04:36.089Z,71.50
2022-07-29T22:07:03.790Z,73.50
2022-07-29T22:09:31.270Z,73.20
2022-07-29T22:11:59.420Z,75.00
2022-07-29T22:14:27.753Z,75.90
2022-07-29T22:16:58.032Z,76.70
2022-07-29T22:19:27.341Z,77.60
2022-07-29T22:21:54.732Z,79.80
2022-07-29T22:24:22.021Z,81.90
2022-07-29T22:26:49.105Z,83.00
2022-07-29T22:29:17.849Z,84.80
2022-07-29T22:31:45.195Z,85.40
2022-07-29T22:34:13.206Z,85.90
2022-07-29T22:36:41.229Z,87.10
2022-07-29T22:39:08.296Z,87.00
2022-07-29T22:41:35.462Z,87.70
2022-07-29T22:44:02.729Z,87.80
2022-07-29T22:46:31.158Z,88.30
2022-07-29T22:48:58.395Z,88.20
2022-07-29T22:51:26.854Z,88.80
2022-07-29T22:53:54.353Z,89.00
2022-07-29T22:56:21.615Z,89.30
2022-07-29T22:58:49.116Z,89.70
2022-07-29T23:01:37.308Z,89.90
2022-07-29T23:04:06.178Z,89.70
2022-07-29T23:06:33.539Z,90.40
2022-07-29T23:09:00.531Z,91.00
2022-07-29T23:11:27.674Z,91.80
2022-07-29T23:13:54.678Z,92.70
2022-07-29T23:16:26.102Z,92.50
2022-07-29T23:18:54.689Z,92.70
2022-07-29T23:21:21.674Z,92.80
2022-07-29T23:23:49.215Z,93.10
2022-07-29T23:26:17.051Z,93.20
2022-07-29T23:28:45.307Z,92.80
2022-07-29T23:31:13.823Z,92.70
2022-07-29T23:33:41.797Z,93.20
2022-07-29T23:36:08.733Z,93.20
2022-07-29T23:38:39.405Z,93.60
2022-07-29T23:41:11.849Z,94.70
2022-07-29T23:43:38.764Z,94.00
2022-07-29T23:46:06.380Z,94.40
2022-07-29T23:48:34.435Z,94.40
2022-07-29T23:51:01.634Z,94.10
2022-07-29T23:53:28.992Z,94.80
2022-07-29T23:55:56.607Z,95.20
2022-07-29T23:58:24.126Z,95.80
